sensor_id;sensor_type;location;lat;lon;timestamp;temperature;humidity
36212;DHT22;22247;48.586;13.492;2023-04-25T00:01:47;5.80;99.90
36212;DHT22;22247;48.586;13.492;2023-04-25T00:04:12;5.50;99.90
36212;DHT22;22247;48.586;13.492;2023-04-25T00:06:38;5.40;99.90
36212;DHT22;22247;48.586;13.492;2023-04-25T00:11:36;5.50;99.90
36212;DHT22;22247;48.586;13.492;2023-04-25T00:14:03;5.40;99.90
36212;DHT22;22247;48.586;13.492;2023-04-25T00:19:00;5.40;99.90
36212;DHT22;22247;48.586;13.492;2023-04-25T00:21:27;5.40;99.90
36212;DHT22;22247;48.586;13.492;2023-04-25T00:23:54;5.40;99.90
36212;DHT22;22247;48.586;13.492;2023-04-25T00:26:19;5.40;99.90
36212;DHT22;22247;48.586;13.492;2023-04-25T00:28:46;5.50;99.90
36212;DHT22;22247;48.586;13.492;2023-04-25T00:33:38;5.30;99.90
36212;DHT22;22247;48.586;13.492;2023-04-25T00:36:07;5.60;99.90
36212;DHT22;22247;48.586;13.492;2023-04-25T00:38:35;5.30;99.90
36212;DHT22;22247;48.586;13.492;2023-04-25T00:41:01;5.50;99.90
36212;DHT22;22247;48.586;13.492;2023-04-25T00:43:27;5.50;99.90
36212;DHT22;22247;48.586;13.492;2023-04-25T00:48:21;5.50;99.90
36212;DHT22;22247;48.586;13.492;2023-04-25T00:50:55;5.60;99.90
36212;DHT22;22247;48.586;13.492;2023-04-25T00:53:23;6.00;99.90
36212;DHT22;22247;48.586;13.492;2023-04-25T00:55:49;5.60;99.90
36212;DHT22;22247;48.586;13.492;2023-04-25T00:58:18;5.30;99.90
36212;DHT22;22247;48.586;13.492;2023-04-25T01:00:45;5.40;99.90
36212;DHT22;22247;48.586;13.492;2023-04-25T01:03:15;5.40;99.90
36212;DHT22;22247;48.586;13.492;2023-04-25T01:05:41;5.40;99.90
36212;DHT22;22247;48.586;13.492;2023-04-25T01:08:08;5.40;99.90
36212;DHT22;22247;48.586;13.492;2023-04-25T01:15:28;5.40;99.90
36212;DHT22;22247;48.586;13.492;2023-04-25T01:17:54;5.90;99.90
36212;DHT22;22247;48.586;13.492;2023-04-25T01:20:22;5.40;99.90
36212;DHT22;22247;48.586;13.492;2023-04-25T01:25:19;5.20;99.90
36212;DHT22;22247;48.586;13.492;2023-04-25T01:32:42;5.30;99.90
36212;DHT22;22247;48.586;13.492;2023-04-25T01:35:10;5.30;99.90
36212;DHT22;22247;48.586;13.492;2023-04-25T01:37:40;5.40;99.90
36212;DHT22;22247;48.586;13.492;2023-04-25T01:40:08;5.40;99.90
36212;DHT22;22247;48.586;13.492;2023-04-25T01:42:35;5.30;99.90
36212;DHT22;22247;48.586;13.492;2023-04-25T01:45:01;5.30;99.90
36212;DHT22;22247;48.586;13.492;2023-04-25T01:49:57;5.40;99.90
36212;DHT22;22247;48.586;13.492;2023-04-25T01:52:23;5.50;99.90
36212;DHT22;22247;48.586;13.492;2023-04-25T01:54:52;5.40;99.90
36212;DHT22;22247;48.586;13.492;2023-04-25T01:57:18;5.40;99.90
36212;DHT22;22247;48.586;13.492;2023-04-25T01:59:44;5.90;99.90
36212;DHT22;22247;48.586;13.492;2023-04-25T02:02:10;5.50;99.90
36212;DHT22;22247;48.586;13.492;2023-04-25T02:04:35;5.60;99.90
36212;DHT22;22247;48.586;13.492;2023-04-25T02:07:01;5.50;99.90
36212;DHT22;22247;48.586;13.492;2023-04-25T02:11:53;5.50;99.90
36212;DHT22;22247;48.586;13.492;2023-04-25T02:14:18;5.50;99.90
36212;DHT22;22247;48.586;13.492;2023-04-25T02:16:46;5.50;99.90
36212;DHT22;22247;48.586;13.492;2023-04-25T02:21:40;5.30;99.90
36212;DHT22;22247;48.586;13.492;2023-04-25T02:24:06;5.30;99.90
36212;DHT22;22247;48.586;13.492;2023-04-25T02:26:32;5.20;99.90
36212;DHT22;22247;48.586;13.492;2023-04-25T02:28:58;5.10;99.90
36212;DHT22;22247;48.586;13.492;2023-04-25T02:33:49;5.10;99.90
36212;DHT22;22247;48.586;13.492;2023-04-25T02:36:15;5.10;99.90
36212;DHT22;22247;48.586;13.492;2023-04-25T02:43:40;5.10;99.90
36212;DHT22;22247;48.586;13.492;2023-04-25T02:46:06;5.10;99.90
36212;DHT22;22247;48.586;13.492;2023-04-25T02:48:31;5.10;99.90
36212;DHT22;22247;48.586;13.492;2023-04-25T02:50:57;5.10;99.90
36212;DHT22;22247;48.586;13.492;2023-04-25T02:53:22;5.20;99.90
36212;DHT22;22247;48.586;13.492;2023-04-25T02:55:48;4.60;99.90
36212;DHT22;22247;48.586;13.492;2023-04-25T02:58:14;5.10;99.90
36212;DHT22;22247;48.586;13.492;2023-04-25T03:03:09;5.00;99.90
36212;DHT22;22247;48.586;13.492;2023-04-25T03:05:37;5.40;99.90
36212;DHT22;22247;48.586;13.492;2023-04-25T03:08:02;4.60;99.90
36212;DHT22;22247;48.586;13.492;2023-04-25T03:10:28;5.20;99.90
36212;DHT22;22247;48.586;13.492;2023-04-25T03:12:54;5.10;99.90
36212;DHT22;22247;48.586;13.492;2023-04-25T03:15:19;5.40;99.90
36212;DHT22;22247;48.586;13.492;2023-04-25T03:17:47;5.80;99.90
36212;DHT22;22247;48.586;13.492;2023-04-25T03:20:13;5.30;99.90
36212;DHT22;22247;48.586;13.492;2023-04-25T03:22:41;6.20;99.90
36212;DHT22;22247;48.586;13.492;2023-04-25T03:25:07;5.30;99.90
36212;DHT22;22247;48.586;13.492;2023-04-25T03:27:33;5.40;99.90
36212;DHT22;22247;48.586;13.492;2023-04-25T03:29:59;5.40;99.90
36212;DHT22;22247;48.586;13.492;2023-04-25T03:32:28;5.10;99.90
36212;DHT22;22247;48.586;13.492;2023-04-25T03:34:54;5.30;99.90
36212;DHT22;22247;48.586;13.492;2023-04-25T03:37:22;5.20;99.90
36212;DHT22;22247;48.586;13.492;2023-04-25T03:39:50;5.20;99.90
36212;DHT22;22247;48.586;13.492;2023-04-25T03:42:16;5.30;99.90
36212;DHT22;22247;48.586;13.492;2023-04-25T03:44:44;5.40;99.90
36212;DHT22;22247;48.586;13.492;2023-04-25T03:47:10;5.50;99.90
36212;DHT22;22247;48.586;13.492;2023-04-25T03:49:38;5.20;99.90
36212;DHT22;22247;48.586;13.492;2023-04-25T03:52:06;5.30;99.90
36212;DHT22;22247;48.586;13.492;2023-04-25T03:54:32;5.30;99.90
36212;DHT22;22247;48.586;13.492;2023-04-25T03:56:58;5.60;99.90
36212;DHT22;22247;48.586;13.492;2023-04-25T03:59:23;5.50;99.90
36212;DHT22;22247;48.586;13.492;2023-04-25T04:01:50;5.30;99.90
36212;DHT22;22247;48.586;13.492;2023-04-25T04:04:18;5.40;99.90
36212;DHT22;22247;48.586;13.492;2023-04-25T04:06:44;5.40;99.90
36212;DHT22;22247;48.586;13.492;2023-04-25T04:09:14;5.40;99.90
36212;DHT22;22247;48.586;13.492;2023-04-25T04:11:40;5.30;99.90
36212;DHT22;22247;48.586;13.492;2023-04-25T04:16:35;5.30;99.90
36212;DHT22;22247;48.586;13.492;2023-04-25T04:21:26;5.40;99.90
36212;DHT22;22247;48.586;13.492;2023-04-25T04:23:52;5.60;99.90
36212;DHT22;22247;48.586;13.492;2023-04-25T04:26:19;5.40;99.90
36212;DHT22;22247;48.586;13.492;2023-04-25T04:28:51;5.30;99.90
36212;DHT22;22247;48.586;13.492;2023-04-25T04:31:20;5.40;99.90
36212;DHT22;22247;48.586;13.492;2023-04-25T04:33:48;5.50;99.90
36212;DHT22;22247;48.586;13.492;2023-04-25T04:36:16;5.60;99.90
36212;DHT22;22247;48.586;13.492;2023-04-25T04:38:45;5.60;99.90
36212;DHT22;22247;48.586;13.492;2023-04-25T04:41:10;5.60;99.90
36212;DHT22;22247;48.586;13.492;2023-04-25T04:43:36;5.60;99.90
36212;DHT22;22247;48.586;13.492;2023-04-25T04:46:02;6.00;99.90
36212;DHT22;22247;48.586;13.492;2023-04-25T04:48:31;6.90;99.90
36212;DHT22;22247;48.586;13.492;2023-04-25T04:51:00;5.90;99.90
36212;DHT22;22247;48.586;13.492;2023-04-25T04:53:26;5.90;99.90
36212;DHT22;22247;48.586;13.492;2023-04-25T04:55:52;5.70;99.90
36212;DHT22;22247;48.586;13.492;2023-04-25T04:58:18;5.80;99.90
36212;DHT22;22247;48.586;13.492;2023-04-25T05:00:46;5.60;99.90
36212;DHT22;22247;48.586;13.492;2023-04-25T05:03:12;5.70;99.90
36212;DHT22;22247;48.586;13.492;2023-04-25T05:05:41;5.80;99.90
36212;DHT22;22247;48.586;13.492;2023-04-25T05:08:06;5.50;99.90
36212;DHT22;22247;48.586;13.492;2023-04-25T05:15:26;5.80;99.90
36212;DHT22;22247;48.586;13.492;2023-04-25T05:25:13;5.70;99.90
36212;DHT22;22247;48.586;13.492;2023-04-25T05:27:38;5.70;99.90
36212;DHT22;22247;48.586;13.492;2023-04-25T05:30:07;5.80;99.90
36212;DHT22;22247;48.586;13.492;2023-04-25T05:35:02;5.90;99.90
36212;DHT22;22247;48.586;13.492;2023-04-25T05:37:28;6.40;99.90
36212;DHT22;22247;48.586;13.492;2023-04-25T05:39:55;6.40;99.90
36212;DHT22;22247;48.586;13.492;2023-04-25T05:49:42;7.30;99.90
36212;DHT22;22247;48.586;13.492;2023-04-25T05:54:33;7.20;99.90
36212;DHT22;22247;48.586;13.492;2023-04-25T05:59:27;7.50;99.90
36212;DHT22;22247;48.586;13.492;2023-04-25T06:01:55;7.60;99.90
36212;DHT22;22247;48.586;13.492;2023-04-25T06:04:21;7.90;99.90
36212;DHT22;22247;48.586;13.492;2023-04-25T06:09:20;7.90;99.90
36212;DHT22;22247;48.586;13.492;2023-04-25T06:14:14;7.80;99.90
36212;DHT22;22247;48.586;13.492;2023-04-25T06:16:39;8.00;99.90
36212;DHT22;22247;48.586;13.492;2023-04-25T06:19:07;8.00;99.90
36212;DHT22;22247;48.586;13.492;2023-04-25T06:21:35;8.10;99.90
36212;DHT22;22247;48.586;13.492;2023-04-25T06:24:03;8.10;99.90
36212;DHT22;22247;48.586;13.492;2023-04-25T06:28:57;8.30;99.90
36212;DHT22;22247;48.586;13.492;2023-04-25T06:31:25;8.30;99.90
36212;DHT22;22247;48.586;13.492;2023-04-25T06:33:53;8.00;99.90
36212;DHT22;22247;48.586;13.492;2023-04-25T06:36:20;8.10;99.90
36212;DHT22;22247;48.586;13.492;2023-04-25T06:38:50;8.30;99.90
36212;DHT22;22247;48.586;13.492;2023-04-25T06:43:42;8.50;99.90
36212;DHT22;22247;48.586;13.492;2023-04-25T06:46:07;8.30;99.90
36212;DHT22;22247;48.586;13.492;2023-04-25T06:51:01;8.50;99.90
36212;DHT22;22247;48.586;13.492;2023-04-25T06:55:53;8.80;99.90
36212;DHT22;22247;48.586;13.492;2023-04-25T07:00:45;8.70;99.90
36212;DHT22;22247;48.586;13.492;2023-04-25T07:03:10;8.80;99.90
36212;DHT22;22247;48.586;13.492;2023-04-25T07:05:36;9.20;99.90
36212;DHT22;22247;48.586;13.492;2023-04-25T07:08:01;8.50;99.90
36212;DHT22;22247;48.586;13.492;2023-04-25T07:12:54;8.10;99.90
36212;DHT22;22247;48.586;13.492;2023-04-25T07:22:37;8.10;99.90
36212;DHT22;22247;48.586;13.492;2023-04-25T07:25:04;8.10;99.90
36212;DHT22;22247;48.586;13.492;2023-04-25T07:27:33;8.00;99.90
36212;DHT22;22247;48.586;13.492;2023-04-25T07:30:00;8.00;99.90
36212;DHT22;22247;48.586;13.492;2023-04-25T07:32:29;8.30;99.90
36212;DHT22;22247;48.586;13.492;2023-04-25T07:34:55;8.70;99.90
36212;DHT22;22247;48.586;13.492;2023-04-25T07:39:49;9.30;99.90
36212;DHT22;22247;48.586;13.492;2023-04-25T07:42:15;9.70;99.90
36212;DHT22;22247;48.586;13.492;2023-04-25T07:44:45;9.60;99.90
36212;DHT22;22247;48.586;13.492;2023-04-25T07:49:37;9.50;99.90
36212;DHT22;22247;48.586;13.492;2023-04-25T07:52:03;9.30;99.90
36212;DHT22;22247;48.586;13.492;2023-04-25T07:54:32;9.40;99.90
36212;DHT22;22247;48.586;13.492;2023-04-25T07:57:00;9.20;99.90
36212;DHT22;22247;48.586;13.492;2023-04-25T08:01:54;9.50;99.90
36212;DHT22;22247;48.586;13.492;2023-04-25T08:04:19;10.10;99.90
36212;DHT22;22247;48.586;13.492;2023-04-25T08:06:50;10.30;99.90
36212;DHT22;22247;48.586;13.492;2023-04-25T08:09:15;10.40;99.90
36212;DHT22;22247;48.586;13.492;2023-04-25T08:11:42;9.40;99.90
36212;DHT22;22247;48.586;13.492;2023-04-25T08:14:08;9.50;99.90
36212;DHT22;22247;48.586;13.492;2023-04-25T08:16:33;9.20;99.90
36212;DHT22;22247;48.586;13.492;2023-04-25T08:18:59;9.20;99.90
36212;DHT22;22247;48.586;13.492;2023-04-25T08:21:25;9.30;99.90
36212;DHT22;22247;48.586;13.492;2023-04-25T08:23:53;9.30;99.90
36212;DHT22;22247;48.586;13.492;2023-04-25T08:26:18;9.70;99.90
36212;DHT22;22247;48.586;13.492;2023-04-25T08:28:46;9.90;99.90
36212;DHT22;22247;48.586;13.492;2023-04-25T08:31:12;9.50;99.90
36212;DHT22;22247;48.586;13.492;2023-04-25T08:33:38;9.60;99.90
36212;DHT22;22247;48.586;13.492;2023-04-25T08:36:03;9.70;99.90
36212;DHT22;22247;48.586;13.492;2023-04-25T08:38:34;9.80;99.90
36212;DHT22;22247;48.586;13.492;2023-04-25T08:41:00;9.90;99.90
36212;DHT22;22247;48.586;13.492;2023-04-25T08:43:29;10.10;99.90
36212;DHT22;22247;48.586;13.492;2023-04-25T08:45:59;9.90;99.90
36212;DHT22;22247;48.586;13.492;2023-04-25T08:48:27;10.20;99.90
36212;DHT22;22247;48.586;13.492;2023-04-25T08:50:54;10.40;99.90
36212;DHT22;22247;48.586;13.492;2023-04-25T08:53:24;11.60;99.90
36212;DHT22;22247;48.586;13.492;2023-04-25T08:55:54;11.10;99.90
36212;DHT22;22247;48.586;13.492;2023-04-25T08:58:20;10.90;99.90
36212;DHT22;22247;48.586;13.492;2023-04-25T09:00:49;11.20;99.90
36212;DHT22;22247;48.586;13.492;2023-04-25T09:08:08;10.80;99.90
36212;DHT22;22247;48.586;13.492;2023-04-25T09:10:34;10.40;99.90
36212;DHT22;22247;48.586;13.492;2023-04-25T09:13:08;10.40;99.90
36212;DHT22;22247;48.586;13.492;2023-04-25T09:15:51;10.00;99.90
36212;DHT22;22247;48.586;13.492;2023-04-25T09:18:26;9.90;99.90
36212;DHT22;22247;48.586;13.492;2023-04-25T09:20:57;9.80;99.90
36212;DHT22;22247;48.586;13.492;2023-04-25T09:23:23;9.80;99.90
36212;DHT22;22247;48.586;13.492;2023-04-25T09:25:50;9.60;99.90
36212;DHT22;22247;48.586;13.492;2023-04-25T09:28:27;9.50;99.90
36212;DHT22;22247;48.586;13.492;2023-04-25T09:30:58;9.50;99.90
36212;DHT22;22247;48.586;13.492;2023-04-25T09:33:31;9.30;99.90
36212;DHT22;22247;48.586;13.492;2023-04-25T09:36:09;9.00;99.90
36212;DHT22;22247;48.586;13.492;2023-04-25T09:38:48;8.90;99.90
36212;DHT22;22247;48.586;13.492;2023-04-25T09:41:23;8.90;99.90
36212;DHT22;22247;48.586;13.492;2023-04-25T09:43:49;8.90;99.90
36212;DHT22;22247;48.586;13.492;2023-04-25T09:46:17;8.70;99.90
36212;DHT22;22247;48.586;13.492;2023-04-25T09:48:50;9.00;99.90
36212;DHT22;22247;48.586;13.492;2023-04-25T09:51:19;8.90;99.90
36212;DHT22;22247;48.586;13.492;2023-04-25T09:53:47;9.00;99.90
36212;DHT22;22247;48.586;13.492;2023-04-25T09:56:16;9.20;99.90
36212;DHT22;22247;48.586;13.492;2023-04-25T10:01:09;10.60;99.90
36212;DHT22;22247;48.586;13.492;2023-04-25T10:03:39;10.50;99.90
36212;DHT22;22247;48.586;13.492;2023-04-25T10:06:12;10.90;99.90
36212;DHT22;22247;48.586;13.492;2023-04-25T10:08:39;11.60;99.90
36212;DHT22;22247;48.586;13.492;2023-04-25T10:11:07;11.30;99.90
36212;DHT22;22247;48.586;13.492;2023-04-25T10:13:34;11.90;99.90
36212;DHT22;22247;48.586;13.492;2023-04-25T10:16:07;11.80;99.90
36212;DHT22;22247;48.586;13.492;2023-04-25T10:18:33;12.00;99.90
36212;DHT22;22247;48.586;13.492;2023-04-25T10:21:03;12.10;99.90
36212;DHT22;22247;48.586;13.492;2023-04-25T10:23:32;12.50;99.90
36212;DHT22;22247;48.586;13.492;2023-04-25T10:25:59;12.70;99.90
36212;DHT22;22247;48.586;13.492;2023-04-25T10:28:26;12.70;99.90
36212;DHT22;22247;48.586;13.492;2023-04-25T10:31:04;12.40;99.90
36212;DHT22;22247;48.586;13.492;2023-04-25T10:33:34;11.40;99.90
36212;DHT22;22247;48.586;13.492;2023-04-25T10:36:12;11.50;99.90
36212;DHT22;22247;48.586;13.492;2023-04-25T10:38:40;11.40;99.90
36212;DHT22;22247;48.586;13.492;2023-04-25T10:41:10;11.20;99.90
36212;DHT22;22247;48.586;13.492;2023-04-25T10:43:41;11.20;99.90
36212;DHT22;22247;48.586;13.492;2023-04-25T10:48:47;11.70;99.90
36212;DHT22;22247;48.586;13.492;2023-04-25T10:53:44;12.60;99.90
36212;DHT22;22247;48.586;13.492;2023-04-25T10:56:20;11.70;99.90
36212;DHT22;22247;48.586;13.492;2023-04-25T10:58:49;10.30;99.90
36212;DHT22;22247;48.586;13.492;2023-04-25T11:01:24;9.40;99.90
36212;DHT22;22247;48.586;13.492;2023-04-25T11:03:57;9.00;99.90
36212;DHT22;22247;48.586;13.492;2023-04-25T11:06:44;9.20;99.90
36212;DHT22;22247;48.586;13.492;2023-04-25T11:09:14;9.80;99.90
36212;DHT22;22247;48.586;13.492;2023-04-25T11:11:42;10.80;99.90
36212;DHT22;22247;48.586;13.492;2023-04-25T11:14:08;10.50;99.90
36212;DHT22;22247;48.586;13.492;2023-04-25T11:16:36;10.60;99.90
36212;DHT22;22247;48.586;13.492;2023-04-25T11:19:01;10.60;99.90
36212;DHT22;22247;48.586;13.492;2023-04-25T11:21:30;10.40;99.90
36212;DHT22;22247;48.586;13.492;2023-04-25T11:23:57;10.60;99.90
36212;DHT22;22247;48.586;13.492;2023-04-25T11:26:23;10.50;99.90
36212;DHT22;22247;48.586;13.492;2023-04-25T11:28:49;10.40;99.90
36212;DHT22;22247;48.586;13.492;2023-04-25T11:31:20;10.40;99.90
36212;DHT22;22247;48.586;13.492;2023-04-25T11:33:47;11.10;99.90
36212;DHT22;22247;48.586;13.492;2023-04-25T11:36:15;11.50;99.90
36212;DHT22;22247;48.586;13.492;2023-04-25T11:38:40;11.80;99.90
36212;DHT22;22247;48.586;13.492;2023-04-25T11:41:07;11.90;99.90
36212;DHT22;22247;48.586;13.492;2023-04-25T11:43:35;11.90;99.90
36212;DHT22;22247;48.586;13.492;2023-04-25T11:46:01;12.10;99.90
36212;DHT22;22247;48.586;13.492;2023-04-25T11:48:45;11.60;99.90
36212;DHT22;22247;48.586;13.492;2023-04-25T11:51:17;11.90;99.90
36212;DHT22;22247;48.586;13.492;2023-04-25T11:53:44;11.60;99.90
36212;DHT22;22247;48.586;13.492;2023-04-25T11:56:13;11.40;99.90
36212;DHT22;22247;48.586;13.492;2023-04-25T11:58:58;11.30;99.90
36212;DHT22;22247;48.586;13.492;2023-04-25T12:01:28;11.50;99.90
36212;DHT22;22247;48.586;13.492;2023-04-25T12:03:57;11.10;99.90
36212;DHT22;22247;48.586;13.492;2023-04-25T12:06:28;11.00;99.90
36212;DHT22;22247;48.586;13.492;2023-04-25T12:09:04;10.80;99.90
36212;DHT22;22247;48.586;13.492;2023-04-25T12:11:40;10.40;99.90
36212;DHT22;22247;48.586;13.492;2023-04-25T12:14:08;10.00;99.90
36212;DHT22;22247;48.586;13.492;2023-04-25T12:16:44;10.00;99.90
36212;DHT22;22247;48.586;13.492;2023-04-25T12:19:14;9.70;99.90
36212;DHT22;22247;48.586;13.492;2023-04-25T12:21:40;9.70;99.90
36212;DHT22;22247;48.586;13.492;2023-04-25T12:24:23;9.50;99.90
36212;DHT22;22247;48.586;13.492;2023-04-25T12:27:05;9.40;99.90
36212;DHT22;22247;48.586;13.492;2023-04-25T12:29:34;9.40;99.90
36212;DHT22;22247;48.586;13.492;2023-04-25T12:32:02;9.50;99.90
36212;DHT22;22247;48.586;13.492;2023-04-25T12:34:32;9.30;99.90
36212;DHT22;22247;48.586;13.492;2023-04-25T12:37:00;9.20;99.90
36212;DHT22;22247;48.586;13.492;2023-04-25T12:39:27;9.40;99.90
36212;DHT22;22247;48.586;13.492;2023-04-25T12:41:53;9.30;99.90
36212;DHT22;22247;48.586;13.492;2023-04-25T12:44:19;9.20;99.90
36212;DHT22;22247;48.586;13.492;2023-04-25T12:46:46;9.40;99.90
36212;DHT22;22247;48.586;13.492;2023-04-25T12:51:38;9.60;99.90
36212;DHT22;22247;48.586;13.492;2023-04-25T12:54:05;10.40;99.90
36212;DHT22;22247;48.586;13.492;2023-04-25T12:56:31;10.30;99.90
36212;DHT22;22247;48.586;13.492;2023-04-25T12:58:57;10.80;99.90
36212;DHT22;22247;48.586;13.492;2023-04-25T13:01:24;11.00;99.90
36212;DHT22;22247;48.586;13.492;2023-04-25T13:03:52;11.20;99.90
36212;DHT22;22247;48.586;13.492;2023-04-25T13:06:21;11.30;99.90
36212;DHT22;22247;48.586;13.492;2023-04-25T13:08:52;11.30;99.90
36212;DHT22;22247;48.586;13.492;2023-04-25T13:11:17;12.10;99.90
36212;DHT22;22247;48.586;13.492;2023-04-25T13:13:53;11.90;99.90
36212;DHT22;22247;48.586;13.492;2023-04-25T13:16:19;12.20;99.90
36212;DHT22;22247;48.586;13.492;2023-04-25T13:18:46;12.30;99.90
36212;DHT22;22247;48.586;13.492;2023-04-25T13:23:38;12.40;99.90
36212;DHT22;22247;48.586;13.492;2023-04-25T13:26:03;12.60;99.90
36212;DHT22;22247;48.586;13.492;2023-04-25T13:28:29;12.70;99.90
36212;DHT22;22247;48.586;13.492;2023-04-25T13:30:57;12.40;99.90
36212;DHT22;22247;48.586;13.492;2023-04-25T13:33:43;12.30;99.90
36212;DHT22;22247;48.586;13.492;2023-04-25T13:38:39;12.60;99.90
36212;DHT22;22247;48.586;13.492;2023-04-25T13:41:08;12.40;99.90
36212;DHT22;22247;48.586;13.492;2023-04-25T13:43:38;12.80;99.90
36212;DHT22;22247;48.586;13.492;2023-04-25T13:46:06;12.80;99.90
36212;DHT22;22247;48.586;13.492;2023-04-25T13:48:32;12.80;99.90
36212;DHT22;22247;48.586;13.492;2023-04-25T13:50:57;12.80;99.90
36212;DHT22;22247;48.586;13.492;2023-04-25T13:53:23;12.70;99.90
36212;DHT22;22247;48.586;13.492;2023-04-25T13:55:52;11.70;99.90
36212;DHT22;22247;48.586;13.492;2023-04-25T13:58:20;11.70;99.90
36212;DHT22;22247;48.586;13.492;2023-04-25T14:00:48;11.50;99.90
36212;DHT22;22247;48.586;13.492;2023-04-25T14:03:18;11.50;99.90
36212;DHT22;22247;48.586;13.492;2023-04-25T14:05:46;11.40;99.90
36212;DHT22;22247;48.586;13.492;2023-04-25T14:08:11;11.40;99.90
36212;DHT22;22247;48.586;13.492;2023-04-25T14:10:40;11.20;99.90
36212;DHT22;22247;48.586;13.492;2023-04-25T14:13:05;10.90;99.90
36212;DHT22;22247;48.586;13.492;2023-04-25T14:15:32;10.90;99.90
36212;DHT22;22247;48.586;13.492;2023-04-25T14:17:58;10.90;99.90
36212;DHT22;22247;48.586;13.492;2023-04-25T14:22:52;10.70;99.90
36212;DHT22;22247;48.586;13.492;2023-04-25T14:25:20;10.30;99.90
36212;DHT22;22247;48.586;13.492;2023-04-25T14:27:45;10.50;99.90
36212;DHT22;22247;48.586;13.492;2023-04-25T14:30:20;10.10;99.90
36212;DHT22;22247;48.586;13.492;2023-04-25T14:32:46;9.90;99.90
36212;DHT22;22247;48.586;13.492;2023-04-25T14:35:14;9.50;99.90
36212;DHT22;22247;48.586;13.492;2023-04-25T14:37:42;9.10;99.90
36212;DHT22;22247;48.586;13.492;2023-04-25T14:40:11;8.70;99.90
36212;DHT22;22247;48.586;13.492;2023-04-25T14:42:41;8.60;99.90
36212;DHT22;22247;48.586;13.492;2023-04-25T14:45:08;8.60;99.90
36212;DHT22;22247;48.586;13.492;2023-04-25T14:47:39;8.50;99.90
36212;DHT22;22247;48.586;13.492;2023-04-25T14:50:08;8.40;99.90
36212;DHT22;22247;48.586;13.492;2023-04-25T14:52:37;8.70;99.90
36212;DHT22;22247;48.586;13.492;2023-04-25T14:55:05;8.80;99.90
36212;DHT22;22247;48.586;13.492;2023-04-25T14:57:34;8.80;99.90
36212;DHT22;22247;48.586;13.492;2023-04-25T15:02:26;9.30;99.90
36212;DHT22;22247;48.586;13.492;2023-04-25T15:09:47;8.80;99.90
36212;DHT22;22247;48.586;13.492;2023-04-25T15:12:13;9.10;99.90
36212;DHT22;22247;48.586;13.492;2023-04-25T15:19:31;9.50;99.90
36212;DHT22;22247;48.586;13.492;2023-04-25T15:21:57;9.50;99.90
36212;DHT22;22247;48.586;13.492;2023-04-25T15:24:25;9.90;99.90
36212;DHT22;22247;48.586;13.492;2023-04-25T15:26:51;10.10;99.90
36212;DHT22;22247;48.586;13.492;2023-04-25T15:31:44;10.00;99.90
36212;DHT22;22247;48.586;13.492;2023-04-25T15:34:10;10.00;99.90
36212;DHT22;22247;48.586;13.492;2023-04-25T15:39:04;9.80;99.90
36212;DHT22;22247;48.586;13.492;2023-04-25T15:46:22;9.80;99.90
36212;DHT22;22247;48.586;13.492;2023-04-25T15:48:48;9.70;99.90
36212;DHT22;22247;48.586;13.492;2023-04-25T15:53:44;10.00;99.90
36212;DHT22;22247;48.586;13.492;2023-04-25T15:56:09;9.90;99.90
36212;DHT22;22247;48.586;13.492;2023-04-25T16:01:02;10.60;99.90
36212;DHT22;22247;48.586;13.492;2023-04-25T16:03:31;10.50;99.90
36212;DHT22;22247;48.586;13.492;2023-04-25T16:05:59;10.60;99.90
36212;DHT22;22247;48.586;13.492;2023-04-25T16:23:06;9.90;99.90
36212;DHT22;22247;48.586;13.492;2023-04-25T16:37:42;9.40;99.90
36212;DHT22;22247;48.586;13.492;2023-04-25T16:40:10;9.10;99.90
36212;DHT22;22247;48.586;13.492;2023-04-25T16:45:04;9.20;99.90
36212;DHT22;22247;48.586;13.492;2023-04-25T16:47:33;9.20;99.90
36212;DHT22;22247;48.586;13.492;2023-04-25T16:49:59;8.80;99.90
36212;DHT22;22247;48.586;13.492;2023-04-25T17:02:14;8.50;99.90
36212;DHT22;22247;48.586;13.492;2023-04-25T17:07:07;8.50;99.90
36212;DHT22;22247;48.586;13.492;2023-04-25T17:12:02;8.60;99.90
36212;DHT22;22247;48.586;13.492;2023-04-25T17:38:55;7.80;99.90
36212;DHT22;22247;48.586;13.492;2023-04-25T17:43:55;7.70;99.90
36212;DHT22;22247;48.586;13.492;2023-04-25T17:46:23;7.70;99.90
36212;DHT22;22247;48.586;13.492;2023-04-25T17:53:44;8.00;99.90
36212;DHT22;22247;48.586;13.492;2023-04-25T18:06:01;6.70;99.90
36212;DHT22;22247;48.586;13.492;2023-04-25T18:20:41;6.80;99.90
36212;DHT22;22247;48.586;13.492;2023-04-25T18:32:57;6.40;99.90
36212;DHT22;22247;48.586;13.492;2023-04-25T18:42:49;6.20;99.90
36212;DHT22;22247;48.586;13.492;2023-04-25T18:45:20;6.30;99.90
36212;DHT22;22247;48.586;13.492;2023-04-25T18:55:09;5.80;99.90
36212;DHT22;22247;48.586;13.492;2023-04-25T19:00:03;5.60;99.90
36212;DHT22;22247;48.586;13.492;2023-04-25T19:14:40;5.30;99.90
36212;DHT22;22247;48.586;13.492;2023-04-25T19:34:10;5.40;99.90
36212;DHT22;22247;48.586;13.492;2023-04-25T19:36:40;5.50;99.90
36212;DHT22;22247;48.586;13.492;2023-04-25T19:41:34;5.50;99.90
36212;DHT22;22247;48.586;13.492;2023-04-25T19:44:06;5.50;99.90
36212;DHT22;22247;48.586;13.492;2023-04-25T19:46:33;5.80;99.90
36212;DHT22;22247;48.586;13.492;2023-04-25T19:56:21;5.50;99.90
36212;DHT22;22247;48.586;13.492;2023-04-25T20:01:16;5.50;99.90
36212;DHT22;22247;48.586;13.492;2023-04-25T20:06:09;5.50;99.90
36212;DHT22;22247;48.586;13.492;2023-04-25T20:08:38;5.50;99.90
36212;DHT22;22247;48.586;13.492;2023-04-25T20:11:06;5.40;99.90
36212;DHT22;22247;48.586;13.492;2023-04-25T20:20:54;5.40;99.90
36212;DHT22;22247;48.586;13.492;2023-04-25T20:28:15;5.40;99.90
36212;DHT22;22247;48.586;13.492;2023-04-25T20:45:18;5.10;99.90
36212;DHT22;22247;48.586;13.492;2023-04-25T20:52:36;5.50;99.90
36212;DHT22;22247;48.586;13.492;2023-04-25T20:55:05;5.70;99.90
36212;DHT22;22247;48.586;13.492;2023-04-25T21:29:21;6.40;99.90
36212;DHT22;22247;48.586;13.492;2023-04-25T21:34:13;6.20;99.90
36212;DHT22;22247;48.586;13.492;2023-04-25T21:36:41;6.10;99.90
36212;DHT22;22247;48.586;13.492;2023-04-25T21:39:09;6.00;99.90
36212;DHT22;22247;48.586;13.492;2023-04-25T21:41:40;6.00;99.90
36212;DHT22;22247;48.586;13.492;2023-04-25T21:44:08;6.10;99.90
36212;DHT22;22247;48.586;13.492;2023-04-25T21:46:36;5.70;99.90
36212;DHT22;22247;48.586;13.492;2023-04-25T21:51:30;5.90;99.90
36212;DHT22;22247;48.586;13.492;2023-04-25T22:13:33;6.10;99.90
36212;DHT22;22247;48.586;13.492;2023-04-25T22:16:00;5.70;99.90
36212;DHT22;22247;48.586;13.492;2023-04-25T22:20:55;5.80;99.90
36212;DHT22;22247;48.586;13.492;2023-04-25T22:35:33;5.30;99.90
36212;DHT22;22247;48.586;13.492;2023-04-25T22:55:09;4.40;99.90